createdAt,value
2022-10-24T00:01:41.442Z,1.60
2022-10-24T00:04:09.776Z,1.90
2022-10-24T00:06:37.858Z,1.70
2022-10-24T00:09:06.013Z,1.33
2022-10-24T00:11:34.804Z,1.83
2022-10-24T00:16:30.948Z,1.50
2022-10-24T00:18:59.204Z,2.28
2022-10-24T00:21:27.551Z,1.95
2022-10-24T00:23:55.874Z,1.98
2022-10-24T00:26:24.107Z,1.70
2022-10-24T00:28:52.437Z,1.88
2022-10-24T00:31:20.926Z,2.03
2022-10-24T00:33:49.121Z,2.13
2022-10-24T00:36:20.608Z,1.70
2022-10-24T00:38:50.043Z,1.75
2022-10-24T00:41:34.494Z,1.52
2022-10-24T00:44:25.642Z,1.73
2022-10-24T00:47:02.414Z,1.80
2022-10-24T00:49:40.745Z,1.40
2022-10-24T00:52:10.702Z,1.58
2022-10-24T00:54:40.844Z,1.50
2022-10-24T00:57:23.435Z,1.50
2022-10-24T00:59:57.374Z,1.48
2022-10-24T01:02:26.083Z,1.73
2022-10-24T01:04:54.357Z,2.03
2022-10-24T01:07:42.708Z,1.80
2022-10-24T01:10:38.198Z,1.92
2022-10-24T01:13:32.087Z,1.42
2022-10-24T01:16:06.711Z,1.90
2022-10-24T01:18:58.034Z,1.98
2022-10-24T01:21:37.276Z,1.52
2022-10-24T01:24:14.663Z,1.63
2022-10-24T01:27:05.661Z,1.67
2022-10-24T01:29:46.066Z,1.40
2022-10-24T01:32:36.237Z,1.02
2022-10-24T01:35:07.422Z,1.30
2022-10-24T01:38:02.550Z,1.33
2022-10-24T01:40:41.315Z,1.70
2022-10-24T01:43:16.371Z,1.52
2022-10-24T01:45:50.827Z,1.20
2022-10-24T01:48:40.572Z,1.55
2022-10-24T01:51:09.936Z,1.25
2022-10-24T01:53:39.423Z,1.25
2022-10-24T01:56:07.909Z,1.00
2022-10-24T01:58:36.051Z,1.00
2022-10-24T02:01:09.611Z,0.85
2022-10-24T02:03:43.122Z,1.13
2022-10-24T02:06:30.195Z,1.25
2022-10-24T02:11:39.594Z,1.10
2022-10-24T02:14:16.507Z,1.58
2022-10-24T02:16:46.270Z,1.10
2022-10-24T02:19:15.574Z,1.30
2022-10-24T02:21:52.054Z,1.10
2022-10-24T02:24:45.008Z,0.77
2022-10-24T02:27:15.811Z,0.93
2022-10-24T02:29:59.506Z,0.70
2022-10-24T02:32:36.633Z,1.13
2022-10-24T02:35:07.209Z,0.80
2022-10-24T02:37:40.478Z,0.93
2022-10-24T02:40:12.205Z,1.05
2022-10-24T02:42:42.807Z,0.95
2022-10-24T02:45:12.678Z,1.17
2022-10-24T02:47:43.619Z,0.60
2022-10-24T02:50:13.011Z,0.55
2022-10-24T02:52:43.930Z,0.60
2022-10-24T02:55:12.626Z,0.85
2022-10-24T02:57:40.864Z,0.90
2022-10-24T03:00:09.822Z,0.50
2022-10-24T03:02:37.977Z,0.60
2022-10-24T03:05:06.514Z,0.50
2022-10-24T03:07:34.638Z,0.50
2022-10-24T03:10:02.774Z,0.60
2022-10-24T03:12:30.999Z,0.47
2022-10-24T03:14:59.094Z,0.40
2022-10-24T03:17:27.299Z,0.43
2022-10-24T03:19:55.447Z,0.25
2022-10-24T03:22:27.424Z,0.45
2022-10-24T03:24:56.834Z,0.52
2022-10-24T03:27:24.996Z,0.38
2022-10-24T03:29:53.103Z,0.40
2022-10-24T03:32:21.285Z,0.40
2022-10-24T03:34:49.475Z,0.70
2022-10-24T03:37:17.861Z,0.30
2022-10-24T03:39:46.031Z,0.45
2022-10-24T03:42:14.250Z,0.40
2022-10-24T03:44:42.320Z,0.40
2022-10-24T03:47:10.773Z,0.50
2022-10-24T03:49:38.964Z,0.38
2022-10-24T03:52:07.702Z,0.40
2022-10-24T03:57:03.838Z,0.27
2022-10-24T03:59:32.090Z,0.57
2022-10-24T04:02:00.220Z,0.30
2022-10-24T04:04:28.459Z,0.20
2022-10-24T04:06:56.870Z,0.43
2022-10-24T04:09:24.912Z,0.30
2022-10-24T04:11:53.396Z,0.20
2022-10-24T04:14:21.981Z,0.20
2022-10-24T04:16:50.258Z,0.20
2022-10-24T04:19:18.416Z,0.10
2022-10-24T04:21:46.937Z,0.30
2022-10-24T04:24:15.843Z,0.20
2022-10-24T04:26:44.066Z,0.20
2022-10-24T04:29:12.616Z,0.32
2022-10-24T04:31:40.709Z,0.30
2022-10-24T04:34:08.884Z,0.20
2022-10-24T04:36:37.132Z,0.25
2022-10-24T04:39:06.014Z,0.50
2022-10-24T04:41:34.129Z,0.40
2022-10-24T04:44:02.161Z,0.30
2022-10-24T04:46:30.409Z,0.25
2022-10-24T04:48:58.561Z,0.32
2022-10-24T04:51:26.933Z,0.20
2022-10-24T04:53:55.417Z,0.13
2022-10-24T04:56:23.726Z,0.22
2022-10-24T04:58:51.982Z,0.13
2022-10-24T05:01:20.270Z,0.20
2022-10-24T05:03:48.338Z,0.32
2022-10-24T05:06:16.605Z,0.30
2022-10-24T05:08:44.646Z,0.30
2022-10-24T05:11:12.781Z,0.20
2022-10-24T05:13:41.192Z,0.20
2022-10-24T05:16:09.354Z,0.10
2022-10-24T05:18:37.374Z,0.17
2022-10-24T05:21:05.793Z,0.10
2022-10-24T05:23:33.888Z,0.13
2022-10-24T05:26:02.008Z,0.20
2022-10-24T05:28:30.395Z,0.30
2022-10-24T05:30:58.561Z,0.10
2022-10-24T05:33:26.735Z,0.20
2022-10-24T05:35:54.929Z,0.35
2022-10-24T05:38:23.148Z,0.20
2022-10-24T05:40:51.657Z,0.20
2022-10-24T05:43:20.198Z,0.30
2022-10-24T05:48:22.960Z,0.20
2022-10-24T05:50:51.043Z,0.30
2022-10-24T05:53:19.388Z,0.10
2022-10-24T05:55:47.436Z,0.30
2022-10-24T05:58:15.851Z,0.20
2022-10-24T06:00:43.896Z,0.30
2022-10-24T06:03:12.418Z,0.20
2022-10-24T06:05:40.858Z,0.20
2022-10-24T06:08:09.765Z,0.20
2022-10-24T06:13:05.697Z,0.15
2022-10-24T06:15:33.911Z,0.22
2022-10-24T06:18:02.123Z,0.30
2022-10-24T06:20:30.365Z,0.20
2022-10-24T06:22:58.568Z,0.20
2022-10-24T06:25:26.754Z,0.20
2022-10-24T06:27:55.140Z,0.20
2022-10-24T06:30:23.547Z,0.35
2022-10-24T06:32:52.088Z,0.25
2022-10-24T06:37:48.711Z,0.13
2022-10-24T06:42:46.297Z,0.10
2022-10-24T06:47:42.864Z,0.10
2022-10-24T06:50:11.498Z,0.10
2022-10-24T06:52:39.547Z,0.20
2022-10-24T06:55:08.447Z,0.10
2022-10-24T06:57:37.159Z,0.20
2022-10-24T07:00:06.079Z,0.13
2022-10-24T07:02:34.439Z,0.20
2022-10-24T07:05:02.798Z,0.15
2022-10-24T07:07:31.096Z,0.20
2022-10-24T07:09:59.515Z,0.20
2022-10-24T07:12:27.621Z,0.10
2022-10-24T07:14:55.789Z,0.10
2022-10-24T07:17:23.917Z,0.22
2022-10-24T07:19:56.290Z,0.13
2022-10-24T07:22:25.589Z,0.10
2022-10-24T07:24:56.287Z,0.20
2022-10-24T07:27:24.769Z,0.10
2022-10-24T07:29:53.740Z,0.20
2022-10-24T07:32:22.579Z,0.10
2022-10-24T07:34:51.025Z,0.10
2022-10-24T07:37:19.665Z,0.10
2022-10-24T07:42:15.856Z,0.10
2022-10-24T07:44:43.935Z,0.10
2022-10-24T07:47:12.711Z,0.10
2022-10-24T07:52:08.616Z,0.10
2022-10-24T07:54:37.579Z,0.10
2022-10-24T07:57:06.213Z,0.10
2022-10-24T07:59:42.207Z,0.10
2022-10-24T08:02:14.981Z,0.32
2022-10-24T08:04:43.846Z,0.10
2022-10-24T08:07:12.332Z,0.20
2022-10-24T08:12:09.446Z,0.10
2022-10-24T08:14:42.334Z,0.20
2022-10-24T08:17:11.222Z,0.20
2022-10-24T08:19:42.418Z,0.13
2022-10-24T08:22:13.057Z,0.35
2022-10-24T08:24:43.187Z,0.10
2022-10-24T08:27:11.706Z,0.10
2022-10-24T08:29:40.541Z,0.20
2022-10-24T08:32:10.235Z,0.25
2022-10-24T08:34:39.151Z,0.10
2022-10-24T08:39:35.462Z,0.10
2022-10-24T08:42:11.552Z,0.10
2022-10-24T08:44:43.481Z,0.17
2022-10-24T08:47:11.704Z,0.13
2022-10-24T08:49:52.407Z,0.20
2022-10-24T08:52:42.943Z,0.20
2022-10-24T08:55:48.103Z,0.20
2022-10-24T08:58:07.844Z,0.30
2022-10-24T09:00:43.295Z,0.30
2022-10-24T09:03:26.167Z,0.30
2022-10-24T09:06:07.371Z,0.30
2022-10-24T09:08:51.868Z,0.30
2022-10-24T09:11:48.930Z,0.40
2022-10-24T09:14:24.310Z,0.20
2022-10-24T09:19:58.524Z,0.30
2022-10-24T09:22:33.230Z,0.43
2022-10-24T09:25:12.790Z,0.20
2022-10-24T09:27:42.647Z,0.10
2022-10-24T09:30:22.724Z,0.30
2022-10-24T09:32:51.216Z,0.13
2022-10-24T09:38:00.097Z,0.30
2022-10-24T09:40:34.213Z,0.30
2022-10-24T09:43:14.682Z,0.20
2022-10-24T09:46:19.734Z,0.30
2022-10-24T09:49:13.339Z,0.90
2022-10-24T09:52:01.297Z,0.60
2022-10-24T09:54:31.821Z,0.50
2022-10-24T09:57:00.100Z,0.30
2022-10-24T09:59:42.328Z,0.22
2022-10-24T10:02:27.983Z,0.68
2022-10-24T10:05:05.312Z,0.47
2022-10-24T10:07:39.139Z,0.63
2022-10-24T10:10:29.883Z,0.68
2022-10-24T10:13:21.686Z,0.90
2022-10-24T10:15:55.713Z,0.73
2022-10-24T10:18:35.649Z,0.57
2022-10-24T10:21:12.671Z,0.70
2022-10-24T10:24:09.229Z,0.80
2022-10-24T10:26:46.026Z,0.57
2022-10-24T10:29:20.359Z,0.40
2022-10-24T10:32:04.936Z,0.70
2022-10-24T10:35:09.239Z,0.70
2022-10-24T10:38:01.004Z,0.52
2022-10-24T10:40:46.932Z,1.05
2022-10-24T10:43:52.925Z,0.68
2022-10-24T10:46:49.535Z,1.08
2022-10-24T10:49:26.718Z,0.85
2022-10-24T10:52:09.724Z,0.85
2022-10-24T10:55:09.970Z,0.70
2022-10-24T10:58:00.180Z,0.70
2022-10-24T11:00:50.781Z,0.80
2022-10-24T11:03:27.929Z,0.73
2022-10-24T11:06:04.968Z,0.68
2022-10-24T11:08:45.046Z,0.60
2022-10-24T11:11:21.636Z,0.85
2022-10-24T11:14:26.408Z,0.60
2022-10-24T11:16:59.476Z,0.60
2022-10-24T11:19:40.427Z,0.57
2022-10-24T11:22:23.122Z,0.88
2022-10-24T11:25:03.320Z,0.70
2022-10-24T11:27:42.632Z,0.80
2022-10-24T11:30:16.402Z,0.60
2022-10-24T11:32:57.100Z,0.60
2022-10-24T11:35:33.971Z,0.70
2022-10-24T11:38:17.874Z,0.70
2022-10-24T11:40:50.953Z,0.75
2022-10-24T11:43:25.254Z,1.02
2022-10-24T11:46:22.900Z,0.80
2022-10-24T11:49:19.742Z,0.63
2022-10-24T11:52:01.678Z,0.82
2022-10-24T11:54:44.422Z,0.60
2022-10-24T11:57:18.666Z,0.65
2022-10-24T11:59:47.092Z,0.55
2022-10-24T12:02:33.610Z,1.17
2022-10-24T12:05:29.263Z,1.10
2022-10-24T12:08:26.236Z,0.93
2022-10-24T12:11:03.674Z,0.93
2022-10-24T12:16:34.344Z,0.50
2022-10-24T12:19:07.197Z,0.75
2022-10-24T12:21:48.508Z,0.60
2022-10-24T12:24:33.815Z,0.43
2022-10-24T12:27:04.454Z,0.50
2022-10-24T12:29:35.299Z,0.80
2022-10-24T12:32:31.372Z,0.63
2022-10-24T12:35:29.838Z,0.60
2022-10-24T12:37:53.122Z,0.82
2022-10-24T12:40:45.810Z,0.50
2022-10-24T12:43:27.083Z,0.60
2022-10-24T12:45:56.633Z,0.40
2022-10-24T12:48:36.312Z,0.40
2022-10-24T12:51:25.920Z,0.50
2022-10-24T12:54:12.876Z,0.40
2022-10-24T12:56:50.777Z,0.45
2022-10-24T12:59:26.817Z,0.67
2022-10-24T13:02:14.063Z,0.40
2022-10-24T13:04:57.163Z,0.25
2022-10-24T13:07:50.834Z,0.43
2022-10-24T13:10:49.997Z,0.40
2022-10-24T13:13:37.209Z,0.45
2022-10-24T13:16:39.441Z,0.32
2022-10-24T13:19:07.609Z,0.60
2022-10-24T13:21:47.166Z,0.30
2022-10-24T13:24:18.373Z,0.50
2022-10-24T13:26:51.714Z,0.35
2022-10-24T13:29:29.102Z,0.30
2022-10-24T13:32:06.971Z,0.30
2022-10-24T13:34:57.202Z,0.50
2022-10-24T13:37:48.859Z,0.30
2022-10-24T13:40:31.397Z,0.40
2022-10-24T13:43:07.863Z,0.40
2022-10-24T13:46:13.214Z,0.22
2022-10-24T13:48:48.571Z,0.20
2022-10-24T13:51:37.582Z,0.30
2022-10-24T13:54:15.415Z,0.30
2022-10-24T13:56:46.868Z,0.40
2022-10-24T13:59:33.458Z,0.38
2022-10-24T14:02:25.166Z,0.30
2022-10-24T14:04:57.450Z,0.25
2022-10-24T14:07:32.564Z,0.50
2022-10-24T14:10:09.374Z,0.30
2022-10-24T14:12:39.968Z,0.20
2022-10-24T14:15:22.267Z,0.30
2022-10-24T14:18:01.977Z,0.30
2022-10-24T14:20:35.871Z,0.30
2022-10-24T14:23:30.389Z,0.38
2022-10-24T14:26:07.589Z,0.50
2022-10-24T14:28:39.350Z,0.30
2022-10-24T14:31:19.322Z,0.20
2022-10-24T14:33:50.668Z,0.52
2022-10-24T14:36:22.492Z,0.50
2022-10-24T14:38:55.753Z,0.20
2022-10-24T14:41:40.209Z,0.20
2022-10-24T14:44:08.925Z,0.30
2022-10-24T14:47:04.373Z,0.32
2022-10-24T14:49:39.707Z,0.30
2022-10-24T14:52:12.815Z,0.30
2022-10-24T14:54:55.291Z,0.47
2022-10-24T14:57:24.842Z,0.30
2022-10-24T14:59:55.686Z,0.30
2022-10-24T15:02:40.390Z,0.30
2022-10-24T15:05:17.593Z,0.40
2022-10-24T15:08:20.287Z,0.20
2022-10-24T15:10:47.140Z,0.23
2022-10-24T15:13:22.174Z,0.35
2022-10-24T15:15:54.506Z,0.60
2022-10-24T15:18:51.874Z,0.25
2022-10-24T15:21:24.952Z,0.25
2022-10-24T15:23:59.875Z,0.20
2022-10-24T15:26:39.662Z,0.32
2022-10-24T15:29:15.767Z,0.73
2022-10-24T15:31:54.472Z,0.30
2022-10-24T15:34:24.875Z,0.20
2022-10-24T15:36:54.355Z,0.20
2022-10-24T15:39:25.419Z,0.20
2022-10-24T15:41:54.564Z,0.30
2022-10-24T15:44:23.874Z,0.20
2022-10-24T15:46:52.684Z,0.20
2022-10-24T15:51:50.905Z,0.20
2022-10-24T15:54:21.960Z,0.30
2022-10-24T15:56:51.363Z,0.20
2022-10-24T15:59:22.079Z,0.20
2022-10-24T16:01:53.532Z,0.30
2022-10-24T16:04:22.785Z,0.20
2022-10-24T16:06:51.980Z,0.30
2022-10-24T16:09:23.715Z,0.20
2022-10-24T16:11:51.989Z,0.20
2022-10-24T16:14:22.719Z,0.35
2022-10-24T16:16:56.944Z,0.20
2022-10-24T16:19:26.738Z,0.20
2022-10-24T16:21:56.263Z,0.55
2022-10-24T16:24:25.020Z,0.30
2022-10-24T16:26:53.596Z,0.22
2022-10-24T16:29:21.788Z,0.38
2022-10-24T16:31:50.007Z,0.38
2022-10-24T16:34:18.357Z,0.17
2022-10-24T16:36:46.533Z,0.20
2022-10-24T16:39:14.627Z,0.40
2022-10-24T16:41:43.042Z,0.20
2022-10-24T16:44:11.210Z,0.20
2022-10-24T16:46:39.654Z,0.28
2022-10-24T16:51:38.210Z,0.40
2022-10-24T16:54:07.661Z,0.30
2022-10-24T16:56:35.731Z,0.15
2022-10-24T16:59:03.934Z,0.55
2022-10-24T17:01:32.196Z,0.30
2022-10-24T17:06:28.629Z,0.50
2022-10-24T17:08:56.878Z,0.30
2022-10-24T17:11:45.311Z,0.10
2022-10-24T17:14:13.439Z,0.30
2022-10-24T17:16:42.907Z,0.35
2022-10-24T17:19:18.299Z,0.15
2022-10-24T17:21:49.079Z,0.20
2022-10-24T17:24:23.131Z,0.57
2022-10-24T17:26:52.288Z,0.50
2022-10-24T17:29:30.208Z,0.20
2022-10-24T17:31:59.223Z,0.10
2022-10-24T17:34:27.880Z,0.20
2022-10-24T17:37:20.724Z,0.20
2022-10-24T17:39:53.136Z,0.30
2022-10-24T17:42:21.671Z,0.30
2022-10-24T17:44:50.088Z,0.20
2022-10-24T17:47:18.502Z,0.20
2022-10-24T17:49:46.821Z,0.10
2022-10-24T17:52:21.414Z,0.20
2022-10-24T17:54:49.965Z,0.15
2022-10-24T17:57:18.088Z,0.10
2022-10-24T17:59:48.653Z,0.20
2022-10-24T18:02:17.211Z,0.30
2022-10-24T18:04:45.506Z,0.28
2022-10-24T18:07:13.674Z,0.35
2022-10-24T18:09:41.850Z,0.20
2022-10-24T18:12:10.162Z,0.20
2022-10-24T18:14:38.464Z,0.20
2022-10-24T18:17:06.560Z,0.32
2022-10-24T18:19:34.920Z,0.17
2022-10-24T18:22:03.019Z,0.10
2022-10-24T18:24:31.414Z,0.20
2022-10-24T18:26:59.550Z,0.10
2022-10-24T18:29:27.714Z,0.20
2022-10-24T18:31:56.118Z,0.20
2022-10-24T18:34:24.387Z,0.20
2022-10-24T18:36:52.900Z,0.30
2022-10-24T18:39:20.984Z,0.30
2022-10-24T18:41:57.884Z,0.25
2022-10-24T18:44:28.976Z,0.30
2022-10-24T18:47:02.582Z,0.20
2022-10-24T18:49:32.322Z,0.20
2022-10-24T18:52:21.327Z,0.32
2022-10-24T18:55:07.696Z,0.38
2022-10-24T18:57:36.206Z,0.43
2022-10-24T19:00:06.556Z,0.40
2022-10-24T19:02:38.635Z,0.50
2022-10-24T19:05:20.208Z,0.57
2022-10-24T19:07:49.838Z,0.20
2022-10-24T19:10:26.712Z,0.63
2022-10-24T19:12:55.513Z,0.40
2022-10-24T19:17:52.418Z,0.30
2022-10-24T19:22:51.000Z,0.40
2022-10-24T19:25:19.171Z,0.30
2022-10-24T19:27:47.452Z,0.40
2022-10-24T19:30:15.812Z,0.32
2022-10-24T19:32:44.247Z,0.43
2022-10-24T19:35:12.477Z,0.35
2022-10-24T19:37:40.698Z,0.20
2022-10-24T19:40:09.764Z,0.30
2022-10-24T19:42:37.865Z,0.30
2022-10-24T19:45:06.501Z,0.30
2022-10-24T19:47:35.367Z,0.32
2022-10-24T19:52:31.212Z,0.50
2022-10-24T19:55:01.872Z,0.57
2022-10-24T19:57:30.313Z,0.35
2022-10-24T19:59:58.418Z,0.47
2022-10-24T20:02:26.877Z,0.70
2022-10-24T20:04:54.943Z,0.68
2022-10-24T20:07:23.106Z,0.30
2022-10-24T20:09:51.526Z,0.45
2022-10-24T20:12:19.690Z,0.70
2022-10-24T20:14:47.854Z,0.45
2022-10-24T20:17:16.040Z,0.60
2022-10-24T20:19:44.433Z,0.50
2022-10-24T20:22:12.799Z,0.40
2022-10-24T20:24:41.054Z,0.40
2022-10-24T20:27:09.620Z,0.35
2022-10-24T20:29:38.036Z,0.50
2022-10-24T20:32:06.206Z,0.52
2022-10-24T20:34:34.416Z,0.50
2022-10-24T20:37:02.768Z,0.40
2022-10-24T20:39:30.881Z,0.47
2022-10-24T20:41:59.377Z,0.32
2022-10-24T20:44:27.833Z,0.50
2022-10-24T20:46:56.128Z,0.32
2022-10-24T20:49:26.019Z,0.50
2022-10-24T20:51:54.241Z,0.20
2022-10-24T20:54:22.584Z,0.50
2022-10-24T20:56:50.750Z,0.30
2022-10-24T20:59:19.057Z,0.40
2022-10-24T21:01:47.363Z,0.30
2022-10-24T21:04:18.463Z,0.50
2022-10-24T21:06:49.161Z,0.32
2022-10-24T21:09:17.472Z,0.30
2022-10-24T21:11:45.810Z,0.30
2022-10-24T21:14:14.377Z,0.30
2022-10-24T21:16:42.647Z,0.40
2022-10-24T21:19:10.892Z,0.52
2022-10-24T21:21:39.429Z,0.35
2022-10-24T21:24:08.092Z,0.30
2022-10-24T21:29:14.598Z,0.40
2022-10-24T21:31:52.738Z,0.35
2022-10-24T21:34:21.204Z,0.30
2022-10-24T21:36:49.754Z,0.40
2022-10-24T21:39:18.681Z,0.30
2022-10-24T21:41:47.074Z,0.30
2022-10-24T21:44:15.217Z,0.43
2022-10-24T21:46:43.555Z,0.22
2022-10-24T21:49:11.865Z,0.30
2022-10-24T21:51:40.210Z,0.30
2022-10-24T21:54:17.212Z,0.25
2022-10-24T21:56:45.828Z,0.20
2022-10-24T21:59:17.153Z,0.30
2022-10-24T22:01:47.306Z,0.40
2022-10-24T22:04:16.749Z,0.47
2022-10-24T22:06:45.610Z,0.55
2022-10-24T22:09:17.649Z,0.47
2022-10-24T22:11:46.405Z,0.50
2022-10-24T22:14:16.625Z,0.25
2022-10-24T22:16:45.103Z,0.30
2022-10-24T22:19:14.644Z,0.28
2022-10-24T22:21:46.380Z,0.30
2022-10-24T22:24:25.141Z,0.30
2022-10-24T22:26:54.057Z,0.50
2022-10-24T22:29:24.386Z,0.43
2022-10-24T22:31:53.963Z,0.60
2022-10-24T22:34:24.658Z,0.30
2022-10-24T22:37:20.306Z,0.50
2022-10-24T22:39:48.760Z,0.30
2022-10-24T22:42:20.130Z,0.30
2022-10-24T22:44:49.051Z,0.40
2022-10-24T22:47:37.038Z,0.35
2022-10-24T22:50:32.868Z,0.60
2022-10-24T22:53:01.378Z,0.73
2022-10-24T22:55:40.871Z,0.55
2022-10-24T22:58:09.831Z,0.65
2022-10-24T23:00:38.249Z,0.65
2022-10-24T23:03:51.136Z,0.47
2022-10-24T23:06:28.041Z,0.45
2022-10-24T23:08:56.703Z,0.60
2022-10-24T23:11:25.035Z,0.88
2022-10-24T23:13:53.504Z,1.33
2022-10-24T23:16:57.367Z,0.40
2022-10-24T23:19:28.893Z,0.45
2022-10-24T23:22:29.997Z,0.50
2022-10-24T23:25:00.487Z,0.70
2022-10-24T23:27:32.852Z,1.00
2022-10-24T23:30:06.228Z,0.85
2022-10-24T23:32:37.937Z,0.43
2022-10-24T23:35:07.247Z,0.57
2022-10-24T23:37:41.024Z,0.52
2022-10-24T23:40:20.845Z,0.65
2022-10-24T23:42:52.717Z,0.77
2022-10-24T23:45:23.321Z,0.65
2022-10-24T23:48:01.664Z,0.75
2022-10-24T23:50:35.748Z,0.70
2022-10-24T23:53:25.518Z,0.50
2022-10-24T23:55:54.287Z,0.70
2022-10-24T23:58:22.535Z,0.75
